• Join FlightAware (Why Join?)
  • Login
  • US Flag 
09:30PM EDT


 

Airport Tracker/Info


-or-


 

Live Flight TrackerFlight Track Log ✈ C-GCFB ✈ 17-Jul-2013 ✈ CYQF - CEC4

Flight Track Log - Related Links

Times and Time Zones

All times are in EDT time to prevent confusion due to time zone crossing. See the C-GCFB flight status page for this flight to view local times or setup timezone preferences in your user account.

Time Position Orientation Groundspeed Altitude Reporting Facility
EDT Latitude Longitude Course Direction KTS MPH feet Rate Location/Type
08:24AM 52.1000 -113.9167 179° South 150 173 5,300  Level Edmonton Center
08:25AM 52.0667 -113.9167 180° South 160 184 6,200 1,080 Climbing Edmonton Center
08:26AM 52.0167 -113.9000 168° South 160 184 7,500 1,020 Climbing Edmonton Center
08:27AM 51.9833 -113.8667 148° Southeast 160 184 8,300 900 Climbing Edmonton Center
08:28AM 51.8515 -113.8818 179° South  Level Estimated
08:28AM 51.9333 -113.8500 168° South 170 196 9,300  Level Edmonton Center
08:29AM 51.7964 -113.8798 179° South  Level Estimated
08:29AM 51.8833 -113.8167 158° South 180 207 10,400  Level Edmonton Center
08:30AM 51.8333 -113.8167 180° South 180 207 10,900 240 Climbing Edmonton Center
08:31AM 51.7667 -113.7667 155° Southeast 210 242 10,900  Level Edmonton Center
08:32AM 51.7167 -113.7333 158° South 220 253 10,900  Level Edmonton Center
08:33AM 51.6500 -113.7167 171° South 220 253 10,900 -60 Level Edmonton Center
08:34AM 51.5833 -113.6833 163° South 220 253 10,800 -360 Descending Edmonton Center
08:35AM 51.5333 -113.7000 192° South 200 230 10,200  Descending Edmonton Center
10:07AM 52.3000 -114.4000 331° Northwest 150 173 12,200  Climbing Edmonton Center
10:08AM 52.3000 -114.4667 270° West 170 196 13,200 1,020 Climbing Edmonton Center
10:09AM 52.3333 -114.5333 309° West 170 196 14,300 1,020 Climbing Edmonton Center
10:10AM 52.3500 -114.5833 299° West 150 173 15,300 840 Climbing Edmonton Center
10:11AM 52.3667 -114.6667 288° West 170 196 16,000 300 Climbing Edmonton Center
10:12AM 52.4000 -114.7667 299° West 190 219 16,000  Level Edmonton Center
10:13AM 52.4333 -114.8333 309° West 210 242 16,000  Level Edmonton Center
10:14AM 52.4500 -114.9167 288° West 220 253 16,000  Level Edmonton Center
10:15AM 52.4833 -115.0000 303° West 210 242 16,000  Level Edmonton Center
10:16AM 52.5000 -115.1000 285° West 210 242 16,000  Level Edmonton Center
10:17AM 52.5333 -115.1833 303° West 210 242 16,000  Level Edmonton Center
10:18AM 52.5667 -115.2833 299° West 210 242 16,000  Level Edmonton Center
10:19AM 52.5833 -115.3667 288° West 210 242 16,000  Level Edmonton Center
10:20AM 52.6167 -115.4667 299° West 210 242 16,000  Level Edmonton Center
10:21AM 52.6333 -115.5167 299° West 210 242 16,000  Level Edmonton Center
10:22AM 52.6667 -115.6167 299° West 210 242 16,000  Level Edmonton Center
10:23AM 52.6833 -115.7000 288° West 210 242 16,000  Level Edmonton Center
10:24AM 52.7167 -115.8000 299° West 210 242 16,000  Level Edmonton Center
10:25AM 52.7333 -115.8833 288° West 210 242 16,000  Level Edmonton Center
10:26AM 52.7667 -115.9833 299° West 210 242 16,000  Level Edmonton Center
10:27AM 52.8000 -116.0667 304° West 210 242 16,000  Level Edmonton Center
10:28AM 52.8167 -116.1667 285° West 220 253 16,000  Level Edmonton Center
10:29AM 52.8500 -116.2333 310° West 210 242 16,000  Level Edmonton Center
10:30AM 52.8833 -116.3167 304° West 210 242 16,000  Level Edmonton Center
10:31AM 52.9167 -116.4167 299° West 220 253 16,000  Level Edmonton Center
10:32AM 52.9333 -116.5000 288° West 210 242 16,000 -120 Level Edmonton Center
10:33AM 52.9667 -116.6000 299° West 210 242 15,800 -360 Descending Edmonton Center
10:34AM 52.9833 -116.6833 288° West 210 242 15,300 -600 Descending Edmonton Center
10:35AM 53.0167 -116.7833 299° West 220 253 14,600 -600 Descending Edmonton Center
10:36AM 53.0333 -116.8833 286° West 220 253 14,100 -600 Descending Edmonton Center
10:37AM 53.0500 -116.9667 288° West 220 253 13,500 -660 Descending Edmonton Center
10:38AM 53.0833 -117.0667 299° West 210 242 12,800 -720 Descending Edmonton Center
10:39AM 53.1167 -117.1333 310° West 200 230 12,100 -780 Descending Edmonton Center
10:40AM 53.1333 -117.2167 288° West 200 230 11,300 -660 Descending Edmonton Center
10:41AM 53.1500 -117.3167 286° West 200 230 10,800 -720 Descending Edmonton Center
10:42AM 53.1833 -117.3833 310° West 190 219 9,900 -840 Descending Edmonton Center
10:43AM 53.2000 -117.4667 288° West 180 207 9,200 -660 Descending Edmonton Center
10:44AM 53.2167 -117.5333 293° West 180 207 8,600 -600 Descending Edmonton Center
10:46AM 53.2593 -117.6184 310° West  Level FlightAware Approximate
10:53AM 53.3167 -117.7500 304° West  Level FlightAware Approximate
10:54AM 53.3167 -117.7500 304° West  Level FlightAware Approximate
10:55AM 53.3167 -117.7500 304° West  Level FlightAware Approximate
10:56AM 53.3167 -117.7500 304° West  Level FlightAware Approximate
10:57AM 53.3167 -117.7500 304° West  Level FlightAware Approximate